Toyomasa Maru — JJ3927 — position and weather

sailwx.info

Track history (hours):
 
Tides and Currents Weather Stations Pressure Air Temp Water Temp Dewpoint Dewpoint Depression Visibility Wind Speed Wind Dir Waves Ship Positions

Toyomasa Maru

Last reported at 2015-Aug-24 10:26 UTC. Time now 2015-Aug-27 20:46 UTC.
Position N 34°58' E 140°10'.

Length 101 m; draft 6.8 m.

Type: Tanker. MMSI: 431300401.

Date/timePositionNaut miles runAvg speedWind from/ knotsBaromVisibWave heightAir tempDewpointWater temp
2015-Aug-24 10:26N 34°58' E 140°10'1110.8
2015-Aug-24 09:22N 34°53' E 139°58'15 8.1
2015-Aug-24 07:33N 35°02' E 139°43'1313.1
2015-Aug-24 06:33N 35°14' E 139°46'1211.9
2015-Aug-24 05:33N 35°26' E 139°45'4 3.6
2015-Aug-24 04:28N 35°30' E 139°45'0 0.0
2015-Aug-24 03:31N 35°30' E 139°45'0 0.0
2015-Aug-24 02:31N 35°30' E 139°45'0 0.0
2015-Aug-24 01:31N 35°30' E 139°45'0 0.0
2015-Aug-24 00:31N 35°30' E 139°45'0 0.0
2015-Aug-23 23:31N 35°30' E 139°45'0 0.0
2015-Aug-23 22:33N 35°30' E 139°45'4 4.2
2015-Aug-23 21:33N 35°26' E 139°44'3 2.9
2015-Aug-23 20:32N 35°23' E 139°45'0 0.0
2015-Aug-23 19:32N 35°23' E 139°45'0 0.0
2015-Aug-23 18:32N 35°23' E 139°45'0 0.0
2015-Aug-23 17:32N 35°23' E 139°45'0 0.0
2015-Aug-23 16:32N 35°23' E 139°45'0 0.0
2015-Aug-23 15:32N 35°23' E 139°45'0 0.0
2015-Aug-23 14:32N 35°23' E 139°45'0 0.0
2015-Aug-23 13:32N 35°23' E 139°45'0 0.0
2015-Aug-23 12:29N 35°23' E 139°45'0 0.0
2015-Aug-23 11:32N 35°23' E 139°45'8 8.1
2015-Aug-23 10:33N 35°16' E 139°47'1312.6
2015-Aug-23 09:33N 35°03' E 139°44'1511.3
2015-Aug-23 08:14N 34°52' E 139°56'913.8
2015-Aug-23 07:33N 34°54' E 140°08'2711.2
2015-Aug-23 05:07N 35°12' E 140°32'1113.4
2015-Aug-23 04:17N 35°21' E 140°40'1113.8
2015-Aug-23 03:27N 35°31' E 140°48'3113.1
2015-Aug-23 01:04N 36°00' E 141°01'2613.2
2015-Aug-22 23:06N 36°26' E 141°05'913.5
2015-Aug-22 22:25N 36°35' E 141°07'1213.3
2015-Aug-22 21:32N 36°47' E 141°07'  
2015-Aug-19 13:23N 35°25' E 140°45'3913.9
2015-Aug-19 10:33N 34°58' E 140°10'2210.7
2015-Aug-19 08:28N 35°01' E 139°43'1212.8
2015-Aug-19 07:33N 35°12' E 139°46'1211.8
2015-Aug-19 06:34N 35°23' E 139°42'9 8.5
2015-Aug-19 05:34N 35°31' E 139°46'0 0.0
2015-Aug-19 04:32N 35°31' E 139°46'0 0.0
2015-Aug-19 03:29N 35°31' E 139°46'0 0.0
2015-Aug-19 02:29N 35°31' E 139°46'0 0.0
2015-Aug-19 01:32N 35°31' E 139°46'0 0.0
2015-Aug-19 00:32N 35°31' E 139°46'0 0.0
2015-Aug-18 23:32N 35°31' E 139°46'0 0.0
2015-Aug-18 22:29N 35°31' E 139°46'2 2.3
2015-Aug-18 21:33N 35°30' E 139°44'6 5.7
2015-Aug-18 20:32N 35°24' E 139°46'0 0.0
2015-Aug-18 19:32N 35°24' E 139°46'0 0.1
2015-Aug-18 18:32N 35°24' E 139°46'0 0.0
2015-Aug-18 17:32N 35°24' E 139°46'0 0.0
2015-Aug-18 16:32N 35°24' E 139°46'0 0.0
2015-Aug-18 15:32N 35°24' E 139°46'0 0.0
2015-Aug-18 14:32N 35°24' E 139°46'0 0.0
2015-Aug-18 13:34N 35°24' E 139°46'9 9.4
2015-Aug-18 12:33N 35°15' E 139°47'1413.8
2015-Aug-18 11:33N 35°01' E 139°44'1110.2
2015-Aug-18 10:28N 34°52' E 139°51'19 9.7
2015-Aug-18 08:33N 34°60' E 140°12'  
2015-Aug-15 14:33N 36°05' E 141°01'1212.3
2015-Aug-15 13:33N 35°53' E 140°60'1312.6
2015-Aug-15 12:33N 35°40' E 140°58'1412.6
2015-Aug-15 11:28N 35°29' E 140°48'1412.7
2015-Aug-15 10:23N 35°18' E 140°38'1716.1
2015-Aug-15 09:21N 35°05' E 140°25'1317.1
2015-Aug-15 08:33N 34°58' E 140°11'2116.5
2015-Aug-15 07:17N 34°47' E 139°49'  
Track history (hours):
 
Tides and Currents Weather Stations Pressure Air Temp Water Temp Dewpoint Dewpoint Depression Visibility Wind Speed Wind Dir Waves Ship Positions

Toyomasa Maru

Last reported at 2015-Aug-24 10:26 UTC. Time now 2015-Aug-27 20:46 UTC.
Position N 34°58' E 140°10'.

Length 101 m; draft 6.8 m.

Type: Tanker. MMSI: 431300401.

Date/timePositionNaut miles runAvg speedWind from/ knotsBaromVisibWave heightAir tempDewpointWater temp
2015-Aug-24 10:26N 34°58' E 140°10'1110.8
2015-Aug-24 09:22N 34°53' E 139°58'15 8.1
2015-Aug-24 07:33N 35°02' E 139°43'1313.1
2015-Aug-24 06:33N 35°14' E 139°46'1211.9
2015-Aug-24 05:33N 35°26' E 139°45'4 3.6
2015-Aug-24 04:28N 35°30' E 139°45'0 0.0
2015-Aug-24 03:31N 35°30' E 139°45'0 0.0
2015-Aug-24 02:31N 35°30' E 139°45'0 0.0
2015-Aug-24 01:31N 35°30' E 139°45'0 0.0
2015-Aug-24 00:31N 35°30' E 139°45'0 0.0
2015-Aug-23 23:31N 35°30' E 139°45'0 0.0
2015-Aug-23 22:33N 35°30' E 139°45'4 4.2
2015-Aug-23 21:33N 35°26' E 139°44'3 2.9
2015-Aug-23 20:32N 35°23' E 139°45'0 0.0
2015-Aug-23 19:32N 35°23' E 139°45'0 0.0
2015-Aug-23 18:32N 35°23' E 139°45'0 0.0
2015-Aug-23 17:32N 35°23' E 139°45'0 0.0
2015-Aug-23 16:32N 35°23' E 139°45'0 0.0
2015-Aug-23 15:32N 35°23' E 139°45'0 0.0
2015-Aug-23 14:32N 35°23' E 139°45'0 0.0
2015-Aug-23 13:32N 35°23' E 139°45'0 0.0
2015-Aug-23 12:29N 35°23' E 139°45'0 0.0
2015-Aug-23 11:32N 35°23' E 139°45'8 8.1
2015-Aug-23 10:33N 35°16' E 139°47'1312.6
2015-Aug-23 09:33N 35°03' E 139°44'1511.3
2015-Aug-23 08:14N 34°52' E 139°56'913.8
2015-Aug-23 07:33N 34°54' E 140°08'2711.2
2015-Aug-23 05:07N 35°12' E 140°32'1113.4
2015-Aug-23 04:17N 35°21' E 140°40'1113.8
2015-Aug-23 03:27N 35°31' E 140°48'3113.1
2015-Aug-23 01:04N 36°00' E 141°01'2613.2
2015-Aug-22 23:06N 36°26' E 141°05'913.5
2015-Aug-22 22:25N 36°35' E 141°07'1213.3
2015-Aug-22 21:32N 36°47' E 141°07'  
2015-Aug-19 13:23N 35°25' E 140°45'3913.9
2015-Aug-19 10:33N 34°58' E 140°10'2210.7
2015-Aug-19 08:28N 35°01' E 139°43'1212.8
2015-Aug-19 07:33N 35°12' E 139°46'1211.8
2015-Aug-19 06:34N 35°23' E 139°42'9 8.5
2015-Aug-19 05:34N 35°31' E 139°46'0 0.0
2015-Aug-19 04:32N 35°31' E 139°46'0 0.0
2015-Aug-19 03:29N 35°31' E 139°46'0 0.0
2015-Aug-19 02:29N 35°31' E 139°46'0 0.0
2015-Aug-19 01:32N 35°31' E 139°46'0 0.0
2015-Aug-19 00:32N 35°31' E 139°46'0 0.0
2015-Aug-18 23:32N 35°31' E 139°46'0 0.0
2015-Aug-18 22:29N 35°31' E 139°46'2 2.3
2015-Aug-18 21:33N 35°30' E 139°44'6 5.7
2015-Aug-18 20:32N 35°24' E 139°46'0 0.0
2015-Aug-18 19:32N 35°24' E 139°46'0 0.1
2015-Aug-18 18:32N 35°24' E 139°46'0 0.0
2015-Aug-18 17:32N 35°24' E 139°46'0 0.0
2015-Aug-18 16:32N 35°24' E 139°46'0 0.0
2015-Aug-18 15:32N 35°24' E 139°46'0 0.0
2015-Aug-18 14:32N 35°24' E 139°46'0 0.0
2015-Aug-18 13:34N 35°24' E 139°46'9 9.4
2015-Aug-18 12:33N 35°15' E 139°47'1413.8
2015-Aug-18 11:33N 35°01' E 139°44'1110.2
2015-Aug-18 10:28N 34°52' E 139°51'19 9.7
2015-Aug-18 08:33N 34°60' E 140°12'  
2015-Aug-15 14:33N 36°05' E 141°01'1212.3
2015-Aug-15 13:33N 35°53' E 140°60'1312.6
2015-Aug-15 12:33N 35°40' E 140°58'1412.6
2015-Aug-15 11:28N 35°29' E 140°48'1412.7
2015-Aug-15 10:23N 35°18' E 140°38'1716.1
2015-Aug-15 09:21N 35°05' E 140°25'1317.1
2015-Aug-15 08:33N 34°58' E 140°11'2116.5
2015-Aug-15 07:17N 34°47' E 139°49'  

Dump ship's entire track history